createdAt,value
2022-10-11T00:00:39.515Z,8.38
2022-10-11T00:03:06.605Z,8.77
2022-10-11T00:05:40.779Z,8.05
2022-10-11T00:08:08.653Z,7.18
2022-10-11T00:10:47.827Z,7.07
2022-10-11T00:13:15.048Z,7.50
2022-10-11T00:15:42.999Z,7.50
2022-10-11T00:18:23.305Z,7.70
2022-10-11T00:20:56.766Z,7.90
2022-10-11T00:24:27.804Z,7.43
2022-10-11T00:28:01.527Z,6.82
2022-10-11T00:30:28.630Z,6.55
2022-10-11T00:33:04.827Z,7.10
2022-10-11T00:35:32.192Z,6.70
2022-10-11T00:38:12.141Z,6.63
2022-10-11T00:40:45.617Z,6.63
2022-10-11T00:43:29.845Z,6.85
2022-10-11T00:46:01.060Z,8.25
2022-10-11T00:48:53.883Z,6.75
2022-10-11T00:51:26.392Z,7.07
2022-10-11T00:53:59.797Z,7.03
2022-10-11T00:56:33.002Z,6.93
2022-10-11T00:59:08.812Z,6.40
2022-10-11T01:01:35.835Z,6.88
2022-10-11T01:04:03.010Z,6.40
2022-10-11T01:06:36.840Z,7.00
2022-10-11T01:09:04.272Z,6.47
2022-10-11T01:11:37.809Z,6.43
2022-10-11T01:14:23.430Z,6.43
2022-10-11T01:17:10.839Z,6.43
2022-10-11T01:20:04.522Z,5.72
2022-10-11T01:23:00.851Z,6.32
2022-10-11T01:25:42.445Z,6.43
2022-10-11T01:28:39.953Z,6.13
2022-10-11T01:31:41.101Z,5.75
2022-10-11T01:34:27.115Z,6.03
2022-10-11T01:37:21.938Z,5.75
2022-10-11T01:40:00.968Z,6.20
2022-10-11T01:42:34.802Z,5.82
2022-10-11T01:45:01.724Z,5.95
2022-10-11T01:47:34.802Z,5.40
2022-10-11T01:50:02.125Z,5.82
2022-10-11T01:52:38.882Z,5.70
2022-10-11T01:55:31.655Z,6.43
2022-10-11T01:58:21.881Z,6.07
2022-10-11T02:01:06.818Z,6.25
2022-10-11T02:04:00.085Z,6.80
2022-10-11T02:06:55.787Z,6.28
2022-10-11T02:10:07.285Z,6.90
2022-10-11T02:12:49.779Z,5.82
2022-10-11T02:15:16.656Z,6.03
2022-10-11T02:18:02.822Z,5.90
2022-10-11T02:20:30.537Z,5.72
2022-10-11T02:23:13.941Z,4.95
2022-10-11T02:25:40.997Z,5.57
2022-10-11T02:28:18.961Z,5.82
2022-10-11T02:30:46.380Z,5.50
2022-10-11T02:33:15.045Z,5.68
2022-10-11T02:35:51.836Z,5.72
2022-10-11T02:38:27.969Z,6.80
2022-10-11T02:41:25.826Z,6.50
2022-10-11T02:43:59.259Z,5.70
2022-10-11T02:46:32.867Z,6.13
2022-10-11T02:49:06.827Z,5.85
2022-10-11T02:51:33.721Z,5.60
2022-10-11T02:54:00.604Z,5.80
2022-10-11T02:56:33.956Z,5.72
2022-10-11T02:59:07.884Z,5.55
2022-10-11T03:01:34.873Z,4.68
2022-10-11T03:04:08.850Z,5.60
2022-10-11T03:06:42.806Z,6.28
2022-10-11T03:09:15.896Z,5.70
2022-10-11T03:11:42.794Z,5.55
2022-10-11T03:14:15.844Z,4.75
2022-10-11T03:16:51.545Z,4.95
2022-10-11T03:19:19.546Z,5.35
2022-10-11T03:21:52.904Z,5.25
2022-10-11T03:24:20.026Z,5.13
2022-10-11T03:26:53.844Z,4.72
2022-10-11T03:29:20.762Z,5.20
2022-10-11T03:31:53.844Z,5.35
2022-10-11T03:34:26.848Z,4.88
2022-10-11T03:36:59.869Z,5.00
2022-10-11T03:39:26.756Z,5.50
2022-10-11T03:42:04.203Z,6.50
2022-10-11T03:44:31.471Z,5.65
2022-10-11T03:47:06.498Z,5.65
2022-10-11T03:49:33.460Z,5.45
2022-10-11T03:52:00.414Z,5.50
2022-10-11T03:54:33.931Z,5.90
2022-10-11T03:57:00.946Z,5.43
2022-10-11T03:59:33.859Z,5.63
2022-10-11T04:02:00.862Z,4.97
2022-10-11T04:04:34.997Z,5.05
2022-10-11T04:07:01.944Z,5.30
2022-10-11T04:09:36.052Z,5.03
2022-10-11T04:12:03.477Z,5.13
2022-10-11T04:14:36.965Z,5.40
2022-10-11T04:17:06.948Z,5.05
2022-10-11T04:19:40.949Z,5.45
2022-10-11T04:22:08.019Z,5.60
2022-10-11T04:24:41.889Z,5.30
2022-10-11T04:27:08.796Z,5.43
2022-10-11T04:29:35.619Z,4.72
2022-10-11T04:32:08.850Z,5.80
2022-10-11T04:34:35.719Z,5.20
2022-10-11T04:37:08.914Z,4.90
2022-10-11T04:39:35.957Z,4.70
2022-10-11T04:42:08.889Z,4.60
2022-10-11T04:44:35.866Z,5.07
2022-10-11T04:47:08.881Z,4.55
2022-10-11T04:49:41.888Z,4.85
2022-10-11T04:52:08.749Z,4.70
2022-10-11T04:54:41.958Z,4.90
2022-10-11T04:57:08.840Z,4.53
2022-10-11T04:59:35.693Z,5.00
2022-10-11T05:02:08.981Z,4.88
2022-10-11T05:04:42.879Z,5.28
2022-10-11T05:07:09.784Z,4.72
2022-10-11T05:09:42.932Z,4.72
2022-10-11T05:12:15.919Z,5.25
2022-10-11T05:14:42.841Z,6.00
2022-10-11T05:17:15.914Z,5.25
2022-10-11T05:19:42.784Z,5.35
2022-10-11T05:22:10.128Z,4.95
2022-10-11T05:24:43.900Z,4.70
2022-10-11T05:27:10.823Z,4.85
2022-10-11T05:29:43.913Z,5.00
2022-10-11T05:32:10.789Z,4.80
2022-10-11T05:34:43.940Z,4.65
2022-10-11T05:37:10.833Z,4.82
2022-10-11T05:39:43.902Z,4.80
2022-10-11T05:42:10.802Z,4.95
2022-10-11T05:44:43.920Z,4.82
2022-10-11T05:47:10.773Z,5.70
2022-10-11T05:49:44.931Z,5.20
2022-10-11T05:52:11.853Z,4.35
2022-10-11T05:54:44.904Z,4.70
2022-10-11T05:57:11.864Z,4.75
2022-10-11T05:59:46.192Z,4.50
2022-10-11T06:02:13.582Z,4.50
2022-10-11T06:04:40.529Z,4.30
2022-10-11T06:07:13.951Z,4.38
2022-10-11T06:09:40.840Z,6.03
2022-10-11T06:12:14.022Z,4.65
2022-10-11T06:14:41.017Z,4.57
2022-10-11T06:17:14.945Z,4.32
2022-10-11T06:19:41.882Z,3.63
2022-10-11T06:22:12.046Z,4.03
2022-10-11T06:24:45.999Z,3.85
2022-10-11T06:27:13.106Z,4.60
2022-10-11T06:29:40.121Z,4.35
2022-10-11T06:32:14.025Z,4.10
2022-10-11T06:34:50.809Z,7.35
2022-10-11T06:37:23.981Z,7.78
2022-10-11T06:39:56.919Z,8.85
2022-10-11T06:42:30.149Z,5.32
2022-10-11T06:44:57.126Z,4.50
2022-10-11T06:47:31.019Z,4.45
2022-10-11T06:49:57.916Z,4.60
2022-10-11T06:52:32.057Z,4.13
2022-10-11T06:54:59.132Z,6.35
2022-10-11T06:57:36.032Z,9.48
2022-10-11T07:00:05.040Z,23.88
2022-10-11T07:02:41.041Z,16.27
2022-10-11T07:05:15.192Z,8.07
2022-10-11T07:07:42.557Z,8.18
2022-10-11T07:10:15.975Z,6.10
2022-10-11T07:12:46.186Z,5.57
2022-10-11T07:15:19.957Z,4.78
2022-10-11T07:17:53.124Z,4.65
2022-10-11T07:20:20.026Z,4.70
2022-10-11T07:22:52.991Z,4.28
2022-10-11T07:25:19.927Z,4.55
2022-10-11T07:27:52.956Z,4.30
2022-10-11T07:30:19.859Z,4.30
2022-10-11T07:32:52.990Z,4.25
2022-10-11T07:35:20.046Z,4.65
2022-10-11T07:37:53.982Z,5.20
2022-10-11T07:40:20.889Z,4.82
2022-10-11T07:42:54.039Z,4.82
2022-10-11T07:45:20.940Z,5.25
2022-10-11T07:47:48.092Z,5.03
2022-10-11T07:50:22.056Z,4.53
2022-10-11T07:52:54.999Z,4.43
2022-10-11T07:55:21.925Z,4.85
2022-10-11T07:57:55.001Z,4.32
2022-10-11T08:00:29.022Z,4.00
2022-10-11T08:02:56.016Z,4.65
2022-10-11T08:05:28.997Z,4.20
2022-10-11T08:07:56.060Z,4.38
2022-10-11T08:10:29.062Z,4.75
2022-10-11T08:12:58.528Z,4.72
2022-10-11T08:15:34.024Z,5.00
2022-10-11T08:18:00.920Z,5.38
2022-10-11T08:20:34.019Z,5.00
2022-10-11T08:23:01.017Z,5.00
2022-10-11T08:25:28.034Z,4.88
2022-10-11T08:28:01.087Z,5.15
2022-10-11T08:30:34.041Z,4.43
2022-10-11T08:33:04.967Z,4.93
2022-10-11T08:35:43.037Z,4.63
2022-10-11T08:38:10.146Z,4.82
2022-10-11T08:40:37.076Z,4.88
2022-10-11T08:43:17.040Z,4.20
2022-10-11T08:45:50.469Z,3.97
2022-10-11T08:48:37.032Z,4.88
2022-10-11T08:51:18.264Z,4.05
2022-10-11T08:54:22.072Z,4.68
2022-10-11T08:56:49.477Z,4.03
2022-10-11T08:59:42.033Z,3.83
2022-10-11T09:03:09.025Z,4.50
2022-10-11T09:06:02.233Z,5.00
2022-10-11T09:09:14.756Z,4.20
2022-10-11T09:12:20.081Z,4.60
2022-10-11T09:15:32.285Z,4.82
2022-10-11T09:18:22.049Z,4.72
2022-10-11T09:21:01.890Z,4.30
2022-10-11T09:24:11.486Z,4.47
2022-10-11T09:27:49.964Z,4.90
2022-10-11T09:30:27.290Z,5.20
2022-10-11T09:33:32.244Z,4.60
2022-10-11T09:36:06.391Z,5.10
2022-10-11T09:38:53.557Z,5.07
2022-10-11T09:41:54.051Z,5.50
2022-10-11T09:44:37.059Z,5.05
2022-10-11T09:47:04.636Z,4.43
2022-10-11T09:50:00.062Z,4.65
2022-10-11T09:52:26.945Z,4.82
2022-10-11T09:55:08.106Z,4.72
2022-10-11T09:57:37.567Z,4.32
2022-10-11T10:00:33.123Z,4.30
2022-10-11T10:03:02.729Z,4.30
2022-10-11T10:05:41.099Z,4.65
2022-10-11T10:08:10.919Z,4.70
2022-10-11T10:10:53.654Z,4.90
2022-10-11T10:13:58.094Z,4.70
2022-10-11T10:16:31.915Z,4.55
2022-10-11T10:19:09.094Z,5.53
2022-10-11T10:21:44.106Z,4.53
2022-10-11T10:24:39.150Z,5.07
2022-10-11T10:27:31.119Z,5.03
2022-10-11T10:30:15.712Z,5.03
2022-10-11T10:33:12.103Z,5.10
2022-10-11T10:35:45.967Z,4.78
2022-10-11T10:38:43.114Z,4.32
2022-10-11T10:41:14.548Z,4.00
2022-10-11T10:43:50.101Z,3.47
2022-10-11T10:46:44.899Z,3.65
2022-10-11T10:49:54.746Z,3.72
2022-10-11T10:52:50.159Z,4.50
2022-10-11T10:55:38.089Z,3.97
2022-10-11T10:58:49.181Z,4.10
2022-10-11T11:01:31.672Z,4.00
2022-10-11T11:04:25.117Z,3.63
2022-10-11T11:07:30.146Z,3.67
2022-10-11T11:10:14.173Z,3.30
2022-10-11T11:12:50.391Z,3.30
2022-10-11T11:15:40.127Z,3.55
2022-10-11T11:18:15.925Z,3.13
2022-10-11T11:21:22.112Z,3.85
2022-10-11T11:24:07.604Z,3.85
2022-10-11T11:26:58.143Z,3.20
2022-10-11T11:30:12.139Z,4.47
2022-10-11T11:33:04.202Z,3.30
2022-10-11T11:35:49.257Z,3.13
2022-10-11T11:38:29.964Z,3.25
2022-10-11T11:41:12.273Z,3.05
2022-10-11T11:43:50.867Z,3.30
2022-10-11T11:46:36.324Z,3.20
2022-10-11T11:49:24.440Z,3.08
2022-10-11T11:51:52.936Z,3.00
2022-10-11T11:55:03.921Z,3.03
2022-10-11T11:57:48.159Z,3.20
2022-10-11T12:00:20.797Z,3.20
2022-10-11T12:03:03.175Z,3.10
2022-10-11T12:05:35.101Z,3.30
2022-10-11T12:08:32.423Z,7.28
2022-10-11T12:11:24.805Z,4.10
2022-10-11T12:14:47.896Z,3.50
2022-10-11T12:17:26.844Z,3.83
2022-10-11T12:23:48.867Z,3.35
2022-10-11T12:26:28.848Z,3.63
2022-10-11T12:29:08.833Z,3.47
2022-10-11T12:31:36.440Z,3.13
2022-10-11T12:34:15.888Z,3.90
2022-10-11T12:36:55.858Z,3.08
2022-10-11T12:39:28.865Z,3.50
2022-10-11T12:42:13.908Z,2.67
2022-10-11T12:44:40.843Z,3.00
2022-10-11T12:47:42.943Z,2.60
2022-10-11T12:51:02.809Z,2.85
2022-10-11T12:54:29.063Z,2.70
2022-10-11T12:57:15.845Z,2.40
2022-10-11T12:59:45.268Z,2.72
2022-10-11T13:02:45.857Z,2.63
2022-10-11T13:05:27.521Z,2.47
2022-10-11T13:08:02.970Z,2.30
2022-10-11T13:10:38.428Z,3.00
2022-10-11T13:13:16.900Z,2.97
2022-10-11T13:15:43.867Z,2.95
2022-10-11T13:18:21.890Z,2.47
2022-10-11T13:20:48.821Z,2.95
2022-10-11T13:23:44.920Z,2.95
2022-10-11T13:26:11.840Z,2.80
2022-10-11T13:28:50.946Z,2.70
2022-10-11T13:31:19.057Z,2.38
2022-10-11T13:33:52.887Z,2.53
2022-10-11T13:36:20.027Z,3.15
2022-10-11T13:39:53.274Z,2.60
2022-10-11T13:42:32.675Z,2.55
2022-10-11T13:46:03.626Z,2.80
2022-10-11T13:48:32.277Z,2.80
2022-10-11T13:51:37.278Z,2.90
2022-10-11T13:54:13.923Z,3.03
2022-10-11T13:56:57.306Z,3.17
2022-10-11T13:59:34.292Z,2.88
2022-10-11T14:02:06.582Z,2.95
2022-10-11T14:04:49.957Z,3.08
2022-10-11T14:08:19.916Z,2.85
2022-10-11T14:10:51.673Z,2.65
2022-10-11T14:13:56.920Z,2.78
2022-10-11T14:17:28.704Z,2.70
2022-10-11T14:20:19.720Z,2.50
2022-10-11T14:23:01.923Z,2.72
2022-10-11T14:25:29.017Z,3.00
2022-10-11T14:28:03.037Z,3.17
2022-10-11T14:30:30.045Z,3.40
2022-10-11T14:33:08.889Z,3.15
2022-10-11T14:35:35.920Z,3.28
2022-10-11T14:38:10.980Z,3.78
2022-10-11T14:40:38.013Z,5.70
2022-10-11T14:43:04.997Z,6.00
2022-10-11T14:45:39.098Z,4.35
2022-10-11T14:48:06.268Z,5.75
2022-10-11T14:51:03.950Z,6.90
2022-10-11T14:53:30.874Z,6.20
2022-10-11T14:56:04.258Z,4.78
2022-10-11T14:58:31.698Z,5.30
2022-10-11T15:01:04.996Z,5.57
2022-10-11T15:03:31.962Z,5.50
2022-10-11T15:05:58.819Z,5.60
2022-10-11T15:08:32.049Z,5.43
2022-10-11T15:11:05.973Z,4.78
2022-10-11T15:13:38.950Z,6.68
2022-10-11T15:16:07.210Z,6.50
2022-10-11T15:18:40.988Z,5.00
2022-10-11T15:21:08.043Z,4.40
2022-10-11T15:23:41.006Z,4.15
2022-10-11T15:26:18.067Z,4.60
2022-10-11T15:28:45.517Z,4.85
2022-10-11T15:31:18.979Z,5.03
2022-10-11T15:33:46.027Z,4.97
2022-10-11T15:36:26.965Z,5.30
2022-10-11T15:38:53.897Z,5.35
2022-10-11T15:41:20.781Z,5.95
2022-10-11T15:43:55.013Z,5.60
2022-10-11T15:46:28.970Z,6.30
2022-10-11T15:48:55.934Z,8.05
2022-10-11T15:51:28.939Z,7.50
2022-10-11T15:53:55.949Z,7.65
2022-10-11T15:56:23.030Z,6.85
2022-10-11T15:58:56.024Z,6.90
2022-10-11T16:01:23.258Z,6.55
2022-10-11T16:03:57.032Z,8.00
2022-10-11T16:06:24.007Z,7.80
2022-10-11T16:08:50.945Z,8.15
2022-10-11T16:11:24.028Z,7.20
2022-10-11T16:13:57.004Z,7.28
2022-10-11T16:16:23.877Z,8.93
2022-10-11T16:18:57.979Z,8.68
2022-10-11T16:21:24.864Z,9.50
2022-10-11T16:23:57.979Z,10.65
2022-10-11T16:26:24.866Z,7.72
2022-10-11T16:28:51.895Z,5.78
2022-10-11T16:31:25.976Z,6.32
2022-10-11T16:33:52.989Z,7.28
2022-10-11T16:36:29.068Z,20.17
2022-10-11T16:38:56.149Z,22.58
2022-10-11T16:41:30.043Z,16.42
2022-10-11T16:44:03.027Z,14.60
2022-10-11T16:46:39.028Z,14.15
2022-10-11T16:49:06.064Z,21.20
2022-10-11T16:51:40.019Z,20.83
2022-10-11T16:54:06.923Z,14.60
2022-10-11T16:56:40.317Z,11.90
2022-10-11T16:59:07.731Z,10.95
2022-10-11T17:01:34.625Z,9.77
2022-10-11T17:04:08.004Z,9.32
2022-10-11T17:06:41.143Z,11.52
2022-10-11T17:09:08.007Z,15.10
2022-10-11T17:11:34.841Z,13.00
2022-10-11T17:14:08.023Z,11.07
2022-10-11T17:16:35.571Z,10.57
2022-10-11T17:19:09.061Z,11.02
2022-10-11T17:21:35.929Z,11.55
2022-10-11T17:24:09.018Z,11.63
2022-10-11T17:26:35.935Z,11.20
2022-10-11T17:29:09.034Z,11.95
2022-10-11T17:31:45.545Z,9.27
2022-10-11T17:34:16.447Z,9.38
2022-10-11T17:36:50.027Z,8.80
2022-10-11T17:39:19.667Z,7.75
2022-10-11T17:41:53.043Z,5.78
2022-10-11T17:44:20.088Z,5.72
2022-10-11T17:46:54.082Z,5.93
2022-10-11T17:49:21.402Z,6.40
2022-10-11T17:51:55.172Z,6.57
2022-10-11T17:54:25.435Z,6.20
2022-10-11T17:56:59.092Z,6.43
2022-10-11T17:59:33.174Z,5.93
2022-10-11T18:02:07.145Z,5.95
2022-10-11T18:04:34.076Z,5.80
2022-10-11T18:07:14.074Z,5.78
2022-10-11T18:09:41.134Z,9.52
2022-10-11T18:12:15.141Z,6.45
2022-10-11T18:14:42.148Z,5.07
2022-10-11T18:17:16.241Z,5.03
2022-10-11T18:19:50.089Z,5.18
2022-10-11T18:22:17.020Z,4.65
2022-10-11T18:24:50.106Z,4.88
2022-10-11T18:27:17.040Z,5.22
2022-10-11T18:29:43.999Z,5.70
2022-10-11T18:32:17.139Z,4.93
2022-10-11T18:34:44.487Z,4.85
2022-10-11T18:37:18.174Z,5.25
2022-10-11T18:39:45.181Z,5.32
2022-10-11T18:42:19.130Z,5.15
2022-10-11T18:44:46.138Z,6.00
2022-10-11T18:47:20.147Z,6.05
2022-10-11T18:49:47.028Z,8.18
2022-10-11T18:52:14.500Z,8.30
2022-10-11T18:54:48.812Z,6.88
2022-10-11T18:57:15.860Z,6.00
2022-10-11T18:59:42.793Z,6.97
2022-10-11T19:02:18.135Z,6.20
2022-10-11T19:04:45.141Z,7.00
2022-10-11T19:07:18.130Z,6.35
2022-10-11T19:09:45.035Z,6.97
2022-10-11T19:12:18.163Z,6.88
2022-10-11T19:14:51.142Z,6.93
2022-10-11T19:17:18.144Z,6.82
2022-10-11T19:19:52.149Z,6.88
2022-10-11T19:22:19.110Z,7.15
2022-10-11T19:24:46.115Z,7.70
2022-10-11T19:27:19.190Z,6.97
2022-10-11T19:29:53.227Z,6.57
2022-10-11T19:32:20.167Z,5.80
2022-10-11T19:34:47.166Z,7.15
2022-10-11T19:37:20.140Z,7.32
2022-10-11T19:39:53.191Z,6.80
2022-10-11T19:42:27.184Z,7.75
2022-10-11T19:44:54.229Z,8.25
2022-10-11T19:47:28.230Z,7.28
2022-10-11T19:49:55.240Z,7.38
2022-10-11T19:52:29.471Z,7.78
2022-10-11T19:54:56.614Z,7.57
2022-10-11T19:57:30.430Z,8.00
2022-10-11T19:59:58.146Z,7.93
2022-10-11T20:02:31.417Z,8.07
2022-10-11T20:04:58.684Z,7.57
2022-10-11T20:07:25.685Z,7.05
2022-10-11T20:10:00.086Z,8.00
2022-10-11T20:12:29.196Z,7.72
2022-10-11T20:15:09.215Z,8.10
2022-10-11T20:17:36.177Z,7.55
2022-10-11T20:20:10.615Z,8.02
2022-10-11T20:22:41.112Z,8.30
2022-10-11T20:25:16.508Z,7.43
2022-10-11T20:27:46.323Z,8.05
2022-10-11T20:30:20.515Z,8.52
2022-10-11T20:32:48.312Z,8.38
2022-10-11T20:35:22.815Z,7.95
2022-10-11T20:37:59.121Z,8.40
2022-10-11T20:40:34.440Z,7.93
2022-10-11T20:43:05.313Z,8.00
2022-10-11T20:45:39.517Z,8.20
2022-10-11T20:48:13.178Z,8.35
2022-10-11T20:50:51.289Z,8.48
2022-10-11T20:53:25.249Z,7.28
2022-10-11T20:55:52.302Z,7.97
2022-10-11T20:58:26.211Z,7.80
2022-10-11T21:00:53.192Z,8.73
2022-10-11T21:03:20.129Z,8.70
2022-10-11T21:05:53.214Z,7.88
2022-10-11T21:10:54.482Z,7.63
2022-10-11T21:13:28.263Z,7.85
2022-10-11T21:16:02.319Z,7.38
2022-10-11T21:18:29.312Z,7.80
2022-10-11T21:20:56.279Z,7.40
2022-10-11T21:23:30.232Z,7.55
2022-10-11T21:26:02.301Z,7.45
2022-10-11T21:28:36.284Z,7.88
2022-10-11T21:31:11.452Z,7.35
2022-10-11T21:33:45.263Z,7.47
2022-10-11T21:36:18.338Z,7.47
2022-10-11T21:38:52.237Z,7.57
2022-10-11T21:41:21.840Z,7.90
2022-10-11T21:43:55.321Z,8.10
2022-10-11T21:46:41.698Z,6.97
2022-10-11T21:49:18.223Z,6.18
2022-10-11T21:51:45.394Z,6.15
2022-10-11T21:54:12.386Z,6.30
2022-10-11T21:56:46.229Z,6.57
2022-10-11T21:59:19.219Z,6.43
2022-10-11T22:01:46.330Z,6.90
2022-10-11T22:04:13.874Z,6.60
2022-10-11T22:06:47.259Z,7.18
2022-10-11T22:09:14.189Z,7.22
2022-10-11T22:11:47.243Z,7.22
2022-10-11T22:14:14.276Z,7.25
2022-10-11T22:16:41.334Z,6.95
2022-10-11T22:19:14.259Z,9.20
2022-10-11T22:21:44.945Z,8.38
2022-10-11T22:24:19.257Z,8.70
2022-10-11T22:26:46.198Z,7.95
2022-10-11T22:29:19.219Z,7.32
2022-10-11T22:31:46.099Z,7.53
2022-10-11T22:34:13.004Z,7.25
2022-10-11T22:36:46.236Z,6.65
2022-10-11T22:39:13.121Z,6.90
2022-10-11T22:41:46.226Z,7.55
2022-10-11T22:44:13.261Z,7.43
2022-10-11T22:46:40.170Z,7.50
2022-10-11T22:49:13.302Z,7.28
2022-10-11T22:51:40.380Z,7.30
2022-10-11T22:54:14.292Z,7.15
2022-10-11T22:56:41.270Z,7.20
2022-10-11T22:59:15.225Z,6.35
2022-10-11T23:01:42.184Z,6.70
2022-10-11T23:04:15.321Z,7.40
2022-10-11T23:06:48.266Z,6.40
2022-10-11T23:09:21.230Z,7.07
2022-10-11T23:11:48.082Z,6.65
2022-10-11T23:14:15.099Z,6.60
2022-10-11T23:16:48.284Z,6.90
2022-10-11T23:19:15.222Z,6.15
2022-10-11T23:21:48.277Z,6.13
2022-10-11T23:24:15.335Z,6.18
2022-10-11T23:26:48.294Z,6.72
2022-10-11T23:29:15.324Z,6.70
2022-10-11T23:31:49.305Z,6.70
2022-10-11T23:34:16.281Z,6.55
2022-10-11T23:36:43.194Z,6.32
2022-10-11T23:39:16.265Z,6.53
2022-10-11T23:41:43.687Z,6.72
2022-10-11T23:44:10.813Z,6.28
2022-10-11T23:46:44.250Z,6.45
2022-10-11T23:49:11.182Z,6.53
2022-10-11T23:51:44.283Z,6.55
2022-10-11T23:54:11.269Z,7.10
2022-10-11T23:56:38.255Z,6.22
2022-10-11T23:59:11.296Z,6.53
